createdAt,value
2018-08-18T00:00:19.065Z,99.90
2018-08-18T00:02:47.817Z,99.90
2018-08-18T00:05:17.308Z,99.90
2018-08-18T00:07:46.090Z,99.90
2018-08-18T00:10:16.822Z,99.90
2018-08-18T00:12:45.666Z,99.90
2018-08-18T00:15:14.656Z,99.90
2018-08-18T00:17:43.393Z,99.90
2018-08-18T00:20:16.154Z,99.90
2018-08-18T00:22:45.060Z,99.90
2018-08-18T00:25:13.791Z,99.90
2018-08-18T00:27:42.962Z,99.90
2018-08-18T00:30:17.159Z,99.90
2018-08-18T00:32:45.962Z,99.90
2018-08-18T00:35:14.689Z,99.90
2018-08-18T00:37:43.571Z,99.90
2018-08-18T00:40:12.716Z,99.90
2018-08-18T00:42:41.831Z,99.90
2018-08-18T00:45:12.038Z,99.90
2018-08-18T00:47:40.971Z,99.90
2018-08-18T00:50:10.753Z,99.90
2018-08-18T00:52:39.939Z,99.90
2018-08-18T00:55:08.808Z,99.90
2018-08-18T00:57:37.546Z,99.90
2018-08-18T01:00:07.858Z,99.90
2018-08-18T01:02:36.539Z,99.90
2018-08-18T01:05:05.922Z,99.90
2018-08-18T01:07:34.761Z,99.90
2018-08-18T01:10:03.855Z,99.90
2018-08-18T01:12:32.967Z,99.90
2018-08-18T01:15:01.482Z,99.90
2018-08-18T01:17:30.166Z,99.90
2018-08-18T01:19:59.219Z,99.90
2018-08-18T01:22:27.922Z,99.90
2018-08-18T01:24:56.721Z,99.90
2018-08-18T01:27:25.483Z,99.90
2018-08-18T01:29:59.363Z,99.90
2018-08-18T01:32:28.264Z,99.90
2018-08-18T01:34:56.901Z,99.90
2018-08-18T01:37:25.554Z,99.90
2018-08-18T01:39:55.520Z,99.90
2018-08-18T01:42:24.349Z,99.90
2018-08-18T01:44:54.303Z,99.90
2018-08-18T01:47:23.115Z,99.90
2018-08-18T01:49:51.756Z,99.90
2018-08-18T01:52:23.521Z,99.90
2018-08-18T01:54:52.401Z,99.90
2018-08-18T01:57:22.160Z,99.90
2018-08-18T01:59:51.064Z,99.90
2018-08-18T02:02:22.829Z,99.90
2018-08-18T02:04:51.707Z,99.90
2018-08-18T02:07:30.146Z,99.90
2018-08-18T02:09:58.878Z,99.90
2018-08-18T02:12:27.889Z,99.90
2018-08-18T02:14:57.025Z,99.90
2018-08-18T02:17:28.468Z,99.90
2018-08-18T02:19:57.385Z,99.90
2018-08-18T02:22:26.657Z,99.90
2018-08-18T02:24:55.292Z,99.90
2018-08-18T02:27:23.963Z,99.90
2018-08-18T02:30:04.962Z,99.90
2018-08-18T02:32:36.007Z,99.90
2018-08-18T02:35:05.454Z,99.90
2018-08-18T02:37:34.165Z,99.90
2018-08-18T02:40:02.912Z,99.90
2018-08-18T02:42:31.573Z,99.90
2018-08-18T02:45:00.263Z,99.90
2018-08-18T02:47:28.933Z,99.90
2018-08-18T02:50:00.688Z,99.90
2018-08-18T02:52:34.407Z,99.90
2018-08-18T02:55:06.317Z,99.90
2018-08-18T02:57:36.049Z,99.90
2018-08-18T03:00:07.981Z,99.90
2018-08-18T03:02:36.634Z,99.90
2018-08-18T03:05:05.735Z,99.90
2018-08-18T03:07:45.176Z,99.90
2018-08-18T03:10:19.161Z,99.90
2018-08-18T03:12:47.827Z,99.90
2018-08-18T03:15:59.978Z,99.90
2018-08-18T03:18:42.307Z,99.90
2018-08-18T03:21:11.072Z,99.90
2018-08-18T03:23:49.662Z,99.90
2018-08-18T03:26:21.239Z,99.90
2018-08-18T03:28:51.822Z,99.90
2018-08-18T03:31:20.585Z,99.90
2018-08-18T03:33:49.381Z,99.90
2018-08-18T03:36:24.957Z,99.90
2018-08-18T03:38:55.126Z,99.90
2018-08-18T03:41:24.999Z,99.90
2018-08-18T03:43:54.405Z,99.90
2018-08-18T03:46:23.055Z,99.90
2018-08-18T03:48:52.274Z,99.90
2018-08-18T03:51:23.785Z,99.90
2018-08-18T03:53:52.635Z,99.90
2018-08-18T03:56:21.259Z,99.90
2018-08-18T03:58:53.028Z,99.90
2018-08-18T04:01:38.602Z,99.90
2018-08-18T04:04:08.669Z,99.90
2018-08-18T04:06:38.929Z,99.90
2018-08-18T04:09:12.644Z,99.90
2018-08-18T04:11:41.661Z,99.90
2018-08-18T04:14:10.529Z,99.90
2018-08-18T04:16:44.169Z,99.90
2018-08-18T04:19:13.078Z,99.90
2018-08-18T04:21:41.868Z,99.90
2018-08-18T04:24:10.509Z,99.90
2018-08-18T04:26:39.173Z,99.90
2018-08-18T04:29:07.817Z,99.90
2018-08-18T04:31:36.795Z,99.90
2018-08-18T04:34:07.818Z,99.90
2018-08-18T04:36:36.913Z,99.90
2018-08-18T04:39:10.985Z,99.90
2018-08-18T04:41:40.025Z,99.90
2018-08-18T04:44:08.756Z,99.90
2018-08-18T04:46:37.594Z,99.90
2018-08-18T04:49:06.885Z,99.90
2018-08-18T04:51:35.596Z,99.90
2018-08-18T04:54:04.906Z,99.90
2018-08-18T04:56:33.634Z,99.90
2018-08-18T04:59:02.311Z,99.90
2018-08-18T05:01:31.051Z,99.90
2018-08-18T05:04:04.178Z,99.90
2018-08-18T05:06:33.481Z,99.90
2018-08-18T05:09:04.553Z,99.90
2018-08-18T05:11:33.220Z,99.90
2018-08-18T05:14:01.903Z,99.90
2018-08-18T05:16:30.598Z,99.90
2018-08-18T05:18:59.396Z,99.90
2018-08-18T05:21:28.025Z,99.90
2018-08-18T05:23:56.990Z,99.90
2018-08-18T05:26:25.792Z,99.90
2018-08-18T05:28:54.415Z,99.90
2018-08-18T05:31:23.114Z,99.90
2018-08-18T05:33:51.854Z,99.90
2018-08-18T05:36:20.528Z,99.90
2018-08-18T05:38:49.260Z,99.90
2018-08-18T05:41:18.023Z,99.90
2018-08-18T05:43:46.963Z,99.90
2018-08-18T05:46:15.659Z,99.90
2018-08-18T05:48:44.323Z,99.90
2018-08-18T05:51:13.109Z,99.90
2018-08-18T05:53:41.799Z,99.90
2018-08-18T05:56:10.531Z,99.90
2018-08-18T05:58:51.943Z,99.90
2018-08-18T06:01:37.331Z,99.90
2018-08-18T06:04:16.773Z,99.90
2018-08-18T06:06:46.463Z,99.90
2018-08-18T06:09:16.414Z,99.90
2018-08-18T06:11:45.136Z,99.90
2018-08-18T06:14:14.597Z,99.90
2018-08-18T06:16:43.723Z,99.90
2018-08-18T06:19:12.622Z,99.90
2018-08-18T06:21:41.394Z,99.90
2018-08-18T06:24:10.569Z,99.90
2018-08-18T06:26:39.343Z,99.90
2018-08-18T06:29:08.065Z,99.90
2018-08-18T06:32:08.337Z,99.90
2018-08-18T06:34:37.029Z,99.90
2018-08-18T06:37:05.833Z,99.90
2018-08-18T06:39:50.215Z,99.90
2018-08-18T06:42:30.027Z,99.90
2018-08-18T06:44:58.763Z,99.90
2018-08-18T06:47:27.589Z,99.90
2018-08-18T06:49:56.329Z,99.90
2018-08-18T06:52:25.287Z,99.90
2018-08-18T06:54:55.958Z,99.90
2018-08-18T06:57:35.878Z,99.90
2018-08-18T07:00:09.095Z,99.90
2018-08-18T07:02:37.988Z,99.90
2018-08-18T07:05:08.893Z,99.90
2018-08-18T07:07:37.659Z,99.90
2018-08-18T07:10:21.883Z,99.90
2018-08-18T07:12:52.929Z,99.90
2018-08-18T07:15:25.275Z,99.90
2018-08-18T07:17:54.380Z,99.90
2018-08-18T07:20:23.661Z,99.90
2018-08-18T07:22:53.027Z,99.90
2018-08-18T07:25:21.807Z,99.90
2018-08-18T07:28:24.041Z,99.90
2018-08-18T07:30:53.011Z,99.90
2018-08-18T07:33:22.081Z,99.90
2018-08-18T07:35:50.737Z,99.90
2018-08-18T07:38:19.407Z,99.90
2018-08-18T07:40:50.455Z,99.90
2018-08-18T07:43:20.866Z,99.90
2018-08-18T07:45:50.498Z,99.90
2018-08-18T07:48:19.265Z,99.90
2018-08-18T07:50:48.196Z,99.90
2018-08-18T07:53:17.051Z,99.90
2018-08-18T07:55:45.913Z,99.90
2018-08-18T07:58:16.363Z,99.90
2018-08-18T08:00:45.423Z,99.90
2018-08-18T08:03:15.127Z,99.90
2018-08-18T08:05:43.998Z,99.90
2018-08-18T08:08:13.360Z,99.90
2018-08-18T08:10:42.377Z,99.90
2018-08-18T08:13:12.808Z,99.90
2018-08-18T08:15:41.887Z,99.90
2018-08-18T08:18:12.362Z,99.90
2018-08-18T08:20:41.284Z,99.90
2018-08-18T08:23:09.932Z,99.90
2018-08-18T08:25:38.659Z,99.90
2018-08-18T08:28:07.847Z,99.90
2018-08-18T08:30:36.819Z,99.90
2018-08-18T08:33:05.792Z,99.90
2018-08-18T08:35:37.929Z,99.90
2018-08-18T08:38:06.863Z,99.90
2018-08-18T08:40:35.795Z,99.90
2018-08-18T08:43:04.660Z,99.90
2018-08-18T08:45:33.404Z,99.90
2018-08-18T08:48:02.473Z,99.90
2018-08-18T08:50:31.429Z,99.90
2018-08-18T08:53:00.273Z,99.90
2018-08-18T08:55:29.579Z,99.90
2018-08-18T08:57:58.270Z,99.90
2018-08-18T09:00:27.068Z,99.90
2018-08-18T09:02:56.121Z,99.90
2018-08-18T09:05:25.021Z,99.90
2018-08-18T09:07:53.679Z,99.90
2018-08-18T09:10:22.468Z,99.90
2018-08-18T09:12:51.094Z,99.90
2018-08-18T09:15:20.070Z,99.90
2018-08-18T09:17:48.833Z,99.90
2018-08-18T09:20:19.213Z,99.90
2018-08-18T09:22:58.261Z,99.90
2018-08-18T09:25:27.846Z,99.90
2018-08-18T09:27:57.678Z,99.90
2018-08-18T09:30:28.479Z,99.90
2018-08-18T09:33:00.528Z,99.90
2018-08-18T09:35:29.278Z,99.90
2018-08-18T09:38:01.563Z,99.90
2018-08-18T09:40:32.525Z,99.90
2018-08-18T09:43:09.123Z,99.90
2018-08-18T09:45:37.922Z,99.90
2018-08-18T09:48:07.261Z,99.90
2018-08-18T09:50:35.913Z,99.90
2018-08-18T09:53:04.768Z,99.90
2018-08-18T09:55:33.475Z,99.90
2018-08-18T09:58:03.415Z,99.90
2018-08-18T10:00:37.704Z,99.90
2018-08-18T10:03:06.951Z,99.90
2018-08-18T10:05:35.825Z,99.90
2018-08-18T10:08:04.788Z,99.90
2018-08-18T10:10:34.111Z,99.90
2018-08-18T10:13:03.107Z,99.90
2018-08-18T10:15:31.861Z,99.90
2018-08-18T10:18:00.690Z,99.90
2018-08-18T10:20:34.773Z,99.90
2018-08-18T10:23:04.287Z,99.90
2018-08-18T10:25:32.975Z,99.90
2018-08-18T10:28:01.690Z,99.90
2018-08-18T10:30:30.403Z,99.90
2018-08-18T10:32:59.061Z,99.90
2018-08-18T10:35:30.930Z,99.90
2018-08-18T10:38:04.103Z,99.90
2018-08-18T10:40:32.747Z,99.90
2018-08-18T10:43:01.501Z,99.90
2018-08-18T10:45:30.419Z,99.90
2018-08-18T10:47:59.307Z,99.90
2018-08-18T10:50:51.471Z,99.90
2018-08-18T10:53:20.128Z,99.90
2018-08-18T10:55:48.928Z,99.90
2018-08-18T10:58:28.809Z,99.90
2018-08-18T11:00:58.071Z,99.90
2018-08-18T11:03:26.783Z,99.90
2018-08-18T11:05:55.487Z,99.90
2018-08-18T11:08:24.325Z,99.90
2018-08-18T11:10:53.017Z,99.90
2018-08-18T11:13:21.713Z,99.90
2018-08-18T11:15:50.513Z,99.90
2018-08-18T11:18:19.691Z,99.70
2018-08-18T11:20:48.330Z,99.90
2018-08-18T11:23:17.083Z,99.90
2018-08-18T11:25:50.143Z,99.40
2018-08-18T11:28:19.619Z,99.50
2018-08-18T11:30:49.860Z,99.30
2018-08-18T11:33:34.729Z,99.70
2018-08-18T11:36:04.308Z,99.90
2018-08-18T11:38:33.801Z,98.50
2018-08-18T11:41:02.525Z,97.80
2018-08-18T11:43:37.189Z,98.50
2018-08-18T11:46:06.049Z,98.80
2018-08-18T11:48:35.745Z,97.80
2018-08-18T11:51:04.512Z,97.20
2018-08-18T11:53:33.463Z,97.30
2018-08-18T11:56:02.197Z,97.20
2018-08-18T11:58:30.812Z,96.10
2018-08-18T12:01:00.371Z,95.50
2018-08-18T12:03:31.995Z,95.40
2018-08-18T12:06:02.909Z,94.60
2018-08-18T12:08:33.013Z,94.70
2018-08-18T12:11:05.309Z,94.20
2018-08-18T12:13:39.401Z,94.40
2018-08-18T12:16:17.042Z,94.40
2018-08-18T12:18:46.796Z,93.80
2018-08-18T12:21:16.132Z,93.50
2018-08-18T12:23:47.124Z,93.20
2018-08-18T12:26:18.506Z,93.50
2018-08-18T12:28:49.478Z,93.10
2018-08-18T12:31:20.484Z,92.60
2018-08-18T12:33:49.213Z,91.90
2018-08-18T12:36:18.057Z,92.10
2018-08-18T12:38:48.761Z,90.90
2018-08-18T12:41:17.539Z,90.60
2018-08-18T12:43:51.496Z,91.30
2018-08-18T12:46:21.752Z,91.60
2018-08-18T12:48:51.928Z,91.60
2018-08-18T12:51:21.353Z,90.20
2018-08-18T12:53:54.133Z,90.00
2018-08-18T12:56:25.744Z,90.60
2018-08-18T12:58:54.664Z,91.20
2018-08-18T13:01:39.711Z,90.40
2018-08-18T13:04:10.626Z,90.90
2018-08-18T13:06:44.387Z,90.70
2018-08-18T13:09:14.526Z,91.10
2018-08-18T13:11:44.430Z,90.90
2018-08-18T13:14:16.245Z,90.90
2018-08-18T13:16:45.135Z,91.20
2018-08-18T13:19:15.922Z,91.30
2018-08-18T13:21:44.663Z,90.80
2018-08-18T13:24:13.444Z,91.00
2018-08-18T13:26:42.123Z,90.60
2018-08-18T13:29:10.843Z,90.50
2018-08-18T13:31:41.426Z,90.80
2018-08-18T13:34:11.952Z,91.10
2018-08-18T13:36:41.947Z,91.40
2018-08-18T13:39:12.993Z,91.70
2018-08-18T13:41:42.440Z,91.80
2018-08-18T13:44:11.157Z,91.40
2018-08-18T13:46:48.491Z,91.40
2018-08-18T13:49:20.663Z,91.10
2018-08-18T13:51:49.677Z,91.10
2018-08-18T13:54:18.683Z,91.20
2018-08-18T13:56:47.557Z,91.20
2018-08-18T13:59:33.338Z,91.50
2018-08-18T14:02:02.095Z,90.80
2018-08-18T14:04:32.711Z,90.90
2018-08-18T14:07:01.499Z,91.20
2018-08-18T14:09:30.165Z,90.70
2018-08-18T14:12:04.159Z,91.20
2018-08-18T14:14:32.845Z,91.50
2018-08-18T14:17:01.601Z,91.90
2018-08-18T14:19:30.303Z,92.20
2018-08-18T14:28:49.674Z,91.70
2018-08-18T14:31:18.400Z,93.30
2018-08-18T14:33:47.264Z,93.60
2018-08-18T14:36:16.929Z,93.60
2018-08-18T14:38:47.283Z,94.00
2018-08-18T14:41:20.579Z,94.10
2018-08-18T14:43:49.606Z,94.70
2018-08-18T14:46:18.501Z,94.20
2018-08-18T14:48:47.096Z,94.60
2018-08-18T14:51:15.784Z,94.70
2018-08-18T14:53:44.451Z,95.00
2018-08-18T14:56:13.466Z,95.00
2018-08-18T14:58:43.692Z,95.10
2018-08-18T15:01:13.433Z,95.30
2018-08-18T15:03:42.572Z,95.60
2018-08-18T15:06:12.312Z,95.90
2018-08-18T15:08:41.192Z,96.00
2018-08-18T15:11:09.905Z,96.30
2018-08-18T15:13:38.607Z,96.30
2018-08-18T15:16:07.395Z,96.40
2018-08-18T15:18:36.121Z,96.60
2018-08-18T15:21:04.860Z,96.80
2018-08-18T15:23:36.425Z,97.00
2018-08-18T15:26:06.051Z,97.10
2018-08-18T15:28:34.881Z,97.10
2018-08-18T15:31:03.675Z,97.50
2018-08-18T15:33:32.748Z,97.70
2018-08-18T15:36:01.407Z,97.90
2018-08-18T15:38:43.063Z,97.80
2018-08-18T15:41:12.212Z,98.10
2018-08-18T15:43:41.027Z,98.00
2018-08-18T15:46:09.717Z,98.20
2018-08-18T15:48:40.016Z,98.30
2018-08-18T15:51:08.838Z,98.50
2018-08-18T15:53:55.807Z,98.70
2018-08-18T15:56:25.654Z,98.90
2018-08-18T15:58:55.428Z,99.10
2018-08-18T16:01:26.913Z,99.10
2018-08-18T16:03:56.532Z,99.30
2018-08-18T16:06:25.291Z,99.20
2018-08-18T16:08:54.238Z,99.00
2018-08-18T16:11:23.391Z,98.80
2018-08-18T16:13:52.265Z,98.10
2018-08-18T16:16:20.974Z,98.90
2018-08-18T16:18:50.589Z,98.30
2018-08-18T16:21:24.280Z,98.60
2018-08-18T16:23:53.212Z,98.40
2018-08-18T16:26:21.809Z,98.60
2018-08-18T16:28:52.791Z,99.00
2018-08-18T16:31:23.359Z,99.20
2018-08-18T16:33:53.253Z,99.50
2018-08-18T16:36:22.086Z,99.50
2018-08-18T16:38:50.781Z,99.60
2018-08-18T16:41:19.470Z,99.80
2018-08-18T16:43:48.124Z,99.90
2018-08-18T16:46:27.200Z,99.90
2018-08-18T16:48:56.080Z,99.90
2018-08-18T16:51:24.966Z,99.90
2018-08-18T16:53:53.764Z,99.90
2018-08-18T16:56:25.256Z,99.90
2018-08-18T16:58:55.274Z,99.90
2018-08-18T17:01:24.474Z,99.90
2018-08-18T17:03:53.353Z,99.90
2018-08-18T17:06:22.118Z,99.90
2018-08-18T17:08:50.848Z,99.90
2018-08-18T17:11:19.474Z,99.90
2018-08-18T17:13:48.284Z,99.90
2018-08-18T17:16:17.004Z,99.90
2018-08-18T17:18:45.820Z,99.90
2018-08-18T17:21:15.052Z,99.90
2018-08-18T17:23:43.877Z,99.90
2018-08-18T17:26:12.600Z,99.90
2018-08-18T17:28:41.320Z,99.90
2018-08-18T17:31:10.194Z,99.90
2018-08-18T17:33:39.027Z,99.90
2018-08-18T17:36:08.188Z,99.90
2018-08-18T17:38:36.869Z,99.90
2018-08-18T17:41:05.845Z,99.90
2018-08-18T17:43:34.684Z,99.90
2018-08-18T17:46:06.128Z,99.90
2018-08-18T17:48:40.743Z,99.90
2018-08-18T17:51:10.462Z,99.90
2018-08-18T17:53:43.766Z,99.90
2018-08-18T17:56:13.472Z,99.90
2018-08-18T17:58:42.291Z,99.90
2018-08-18T18:01:11.025Z,99.90
2018-08-18T18:03:40.726Z,99.90
2018-08-18T18:06:09.482Z,99.90
2018-08-18T18:08:38.136Z,99.90
2018-08-18T18:11:06.944Z,99.90
2018-08-18T18:13:35.652Z,99.90
2018-08-18T18:16:14.302Z,99.90
2018-08-18T18:18:46.979Z,99.90
2018-08-18T18:21:15.781Z,99.90
2018-08-18T18:23:44.689Z,99.90
2018-08-18T18:26:13.568Z,99.90
2018-08-18T18:28:42.261Z,99.90
2018-08-18T18:31:11.138Z,99.90
2018-08-18T18:33:40.197Z,99.90
2018-08-18T18:36:08.895Z,99.90
2018-08-18T18:38:52.754Z,99.90
2018-08-18T18:41:22.006Z,99.90
2018-08-18T18:44:02.352Z,99.90
2018-08-18T18:46:31.241Z,99.90
2018-08-18T18:48:59.972Z,99.90
2018-08-18T18:51:28.880Z,99.90
2018-08-18T18:53:58.503Z,99.90
2018-08-18T18:56:27.235Z,99.90
2018-08-18T18:58:55.927Z,99.90
2018-08-18T19:01:24.856Z,99.90
2018-08-18T19:03:53.641Z,99.90
2018-08-18T19:06:22.395Z,99.90
2018-08-18T19:09:00.120Z,99.90
2018-08-18T19:11:29.064Z,99.90
2018-08-18T19:13:58.295Z,99.90
2018-08-18T19:16:27.166Z,99.90
2018-08-18T19:18:55.878Z,99.90
2018-08-18T19:21:30.272Z,99.90
2018-08-18T19:23:59.314Z,99.90
2018-08-18T19:26:38.230Z,99.90
2018-08-18T19:29:06.944Z,99.90
2018-08-18T19:31:35.984Z,99.90
2018-08-18T19:34:13.006Z,99.90
2018-08-18T19:36:54.794Z,99.90
2018-08-18T19:39:25.868Z,99.90
2018-08-18T19:42:03.526Z,99.90
2018-08-18T19:44:32.734Z,99.90
2018-08-18T19:47:01.418Z,99.90
2018-08-18T19:49:36.940Z,99.90
2018-08-18T19:52:11.150Z,99.90
2018-08-18T19:54:48.050Z,99.90
2018-08-18T19:57:25.232Z,99.90
2018-08-18T19:59:55.402Z,99.90
2018-08-18T20:02:24.506Z,99.90
2018-08-18T20:04:53.388Z,99.90
2018-08-18T20:07:22.429Z,99.90
2018-08-18T20:09:51.262Z,99.90
2018-08-18T20:12:20.282Z,99.90
2018-08-18T20:14:49.932Z,99.90
2018-08-18T20:17:18.648Z,99.90
2018-08-18T20:19:47.362Z,99.90
2018-08-18T20:22:16.715Z,99.90
2018-08-18T20:24:45.670Z,99.90
2018-08-18T20:27:14.431Z,99.90
2018-08-18T20:29:43.647Z,99.90
2018-08-18T20:32:13.001Z,99.90
2018-08-18T20:34:42.512Z,99.90
2018-08-18T20:37:11.462Z,99.90
2018-08-18T20:39:40.434Z,99.90
2018-08-18T20:42:09.115Z,99.90
2018-08-18T20:44:37.924Z,99.90
2018-08-18T20:47:07.150Z,99.90
2018-08-18T20:49:35.821Z,99.90
2018-08-18T20:52:04.743Z,99.90
2018-08-18T20:54:33.704Z,99.90
2018-08-18T20:57:02.716Z,99.90
2018-08-18T20:59:31.572Z,99.90
2018-08-18T21:02:00.356Z,99.90
2018-08-18T21:04:29.013Z,99.90
2018-08-18T21:06:57.677Z,99.90
2018-08-18T21:09:31.516Z,99.90
2018-08-18T21:12:00.308Z,99.90
2018-08-18T21:14:30.614Z,99.90
2018-08-18T21:16:59.710Z,99.90
2018-08-18T21:19:28.318Z,99.90
2018-08-18T21:21:57.297Z,99.90
2018-08-18T21:24:25.978Z,99.90
2018-08-18T21:26:54.766Z,99.90
2018-08-18T21:29:24.534Z,99.90
2018-08-18T21:31:53.414Z,99.90
2018-08-18T21:34:22.128Z,99.90
2018-08-18T21:36:50.774Z,99.90
2018-08-18T21:39:19.740Z,99.90
2018-08-18T21:41:49.001Z,99.90
2018-08-18T21:44:17.634Z,99.90
2018-08-18T21:46:46.606Z,99.90
2018-08-18T21:49:15.479Z,99.90
2018-08-18T21:51:50.860Z,99.90
2018-08-18T21:54:19.529Z,99.90
2018-08-18T21:56:48.322Z,99.90
2018-08-18T21:59:17.082Z,99.90
2018-08-18T22:01:46.034Z,99.90
2018-08-18T22:04:14.764Z,99.90
2018-08-18T22:06:43.718Z,99.90
2018-08-18T22:09:20.773Z,99.90
2018-08-18T22:11:55.806Z,99.90
2018-08-18T22:14:24.636Z,99.90
2018-08-18T22:16:57.400Z,99.90
2018-08-18T22:19:27.330Z,99.90
2018-08-18T22:21:56.276Z,99.90
2018-08-18T22:24:25.181Z,99.90
2018-08-18T22:26:53.833Z,99.90
2018-08-18T22:29:24.794Z,99.90
2018-08-18T22:31:53.831Z,99.90
2018-08-18T22:34:22.489Z,99.90
2018-08-18T22:36:54.900Z,99.90
2018-08-18T22:39:23.794Z,99.90
2018-08-18T22:41:52.520Z,99.90
2018-08-18T22:44:21.217Z,99.90
2018-08-18T22:46:49.860Z,99.90
2018-08-18T22:49:18.666Z,99.90
2018-08-18T22:51:47.298Z,99.90
2018-08-18T22:54:15.963Z,99.90
2018-08-18T22:56:48.924Z,99.90
2018-08-18T22:59:17.575Z,99.90
2018-08-18T23:01:46.318Z,99.90
2018-08-18T23:04:28.465Z,99.90
2018-08-18T23:06:57.694Z,99.90
2018-08-18T23:09:27.036Z,99.90
2018-08-18T23:11:59.058Z,99.90
2018-08-18T23:14:34.602Z,99.90
2018-08-18T23:17:03.680Z,99.90
2018-08-18T23:19:33.119Z,99.90
2018-08-18T23:22:02.226Z,99.90
2018-08-18T23:24:35.686Z,99.90
2018-08-18T23:27:04.644Z,99.90
2018-08-18T23:29:33.483Z,99.90
2018-08-18T23:32:11.829Z,99.90
2018-08-18T23:34:40.530Z,99.90
2018-08-18T23:37:13.866Z,99.90
2018-08-18T23:39:42.653Z,99.90
2018-08-18T23:42:17.547Z,99.90
2018-08-18T23:44:46.496Z,99.90
2018-08-18T23:47:15.245Z,99.90
2018-08-18T23:49:44.169Z,99.90
2018-08-18T23:52:12.971Z,99.90
2018-08-18T23:54:41.622Z,99.90
2018-08-18T23:57:10.418Z,99.90
2018-08-18T23:59:39.220Z,99.90
